Terminal Aerodrome Forecast
Issued by NWS

Home | Current Version | Previous Version | Graphics & Text | Print | Product List | Glossary On
Versions: 1 2 3 4 5 6 7 8 9 10 11 12 13 14 15 16 17 18 19 20
000
FTUS43 KGRB 031735
TAFATW
TAF
KATW 031735Z 0318/0418 28005KT P6SM OVC025
     FM032200 VRB03KT P6SM OVC030
     FM040700 00000KT P6SM OVC080
     FM041400 18006KT 2SM -SN SCT014 OVC022
      TEMPO 0415/0418 1SM -SN SCT006 OVC010=

USA.gov is the U.S. government's official web portal to all federal, state and local government web resources and services.